sensor_id;sensor_type;location;lat;lon;timestamp;pressure;altitude;pressure_sealevel;temperature;humidity
78990;BME280;68390;52.130;21.218;2023-09-18T00:01:36;100753.22;;;16.20;98.58
78990;BME280;68390;52.130;21.218;2023-09-18T00:04:05;100747.63;;;16.13;99.01
78990;BME280;68390;52.130;21.218;2023-09-18T00:06:30;100748.25;;;16.09;99.40
78990;BME280;68390;52.130;21.218;2023-09-18T00:08:55;100739.19;;;16.00;99.23
78990;BME280;68390;52.130;21.218;2023-09-18T00:11:21;100736.84;;;15.97;100.00
78990;BME280;68390;52.130;21.218;2023-09-18T00:13:46;100748.28;;;15.94;99.47
78990;BME280;68390;52.130;21.218;2023-09-18T00:16:11;100749.09;;;15.88;100.00
78990;BME280;68390;52.130;21.218;2023-09-18T00:18:38;100744.72;;;15.79;100.00
78990;BME280;68390;52.130;21.218;2023-09-18T00:21:03;100731.66;;;15.73;100.00
78990;BME280;68390;52.130;21.218;2023-09-18T00:23:29;100738.25;;;15.72;100.00
78990;BME280;68390;52.130;21.218;2023-09-18T00:25:54;100739.50;;;15.69;100.00
78990;BME280;68390;52.130;21.218;2023-09-18T00:28:20;100732.66;;;15.65;100.00
78990;BME280;68390;52.130;21.218;2023-09-18T00:30:49;100740.66;;;15.60;100.00
78990;BME280;68390;52.130;21.218;2023-09-18T00:33:15;100743.63;;;15.59;100.00
78990;BME280;68390;52.130;21.218;2023-09-18T00:35:45;100734.34;;;15.52;100.00
78990;BME280;68390;52.130;21.218;2023-09-18T00:38:10;100748.56;;;15.49;100.00
78990;BME280;68390;52.130;21.218;2023-09-18T00:40:36;100743.44;;;15.46;100.00
78990;BME280;68390;52.130;21.218;2023-09-18T00:43:01;100744.00;;;15.41;100.00
78990;BME280;68390;52.130;21.218;2023-09-18T00:45:27;100749.06;;;15.37;100.00
78990;BME280;68390;52.130;21.218;2023-09-18T00:47:53;100752.69;;;15.38;100.00
78990;BME280;68390;52.130;21.218;2023-09-18T00:50:19;100745.44;;;15.37;100.00
78990;BME280;68390;52.130;21.218;2023-09-18T00:52:45;100745.66;;;15.35;100.00
78990;BME280;68390;52.130;21.218;2023-09-18T00:55:10;100745.00;;;15.33;100.00
78990;BME280;68390;52.130;21.218;2023-09-18T00:57:37;100747.09;;;15.31;100.00
78990;BME280;68390;52.130;21.218;2023-09-18T01:00:03;100755.09;;;15.26;100.00
78990;BME280;68390;52.130;21.218;2023-09-18T01:02:31;100752.13;;;15.28;100.00
78990;BME280;68390;52.130;21.218;2023-09-18T01:04:57;100739.75;;;15.24;100.00
78990;BME280;68390;52.130;21.218;2023-09-18T01:07:22;100741.84;;;15.22;100.00
78990;BME280;68390;52.130;21.218;2023-09-18T01:09:48;100746.53;;;15.21;100.00
78990;BME280;68390;52.130;21.218;2023-09-18T01:12:45;100747.56;;;15.20;100.00
78990;BME280;68390;52.130;21.218;2023-09-18T01:15:17;100747.31;;;15.15;100.00
78990;BME280;68390;52.130;21.218;2023-09-18T01:17:44;100754.94;;;15.13;100.00
78990;BME280;68390;52.130;21.218;2023-09-18T01:20:11;100756.16;;;15.11;100.00
78990;BME280;68390;52.130;21.218;2023-09-18T01:22:36;100746.75;;;15.05;100.00
78990;BME280;68390;52.130;21.218;2023-09-18T01:25:02;100747.28;;;15.00;100.00
78990;BME280;68390;52.130;21.218;2023-09-18T01:27:27;100744.72;;;14.99;100.00
78990;BME280;68390;52.130;21.218;2023-09-18T01:29:53;100750.44;;;14.97;100.00
78990;BME280;68390;52.130;21.218;2023-09-18T01:32:19;100751.69;;;14.95;100.00
78990;BME280;68390;52.130;21.218;2023-09-18T01:34:46;100752.75;;;14.94;100.00
78990;BME280;68390;52.130;21.218;2023-09-18T01:37:13;100746.91;;;14.89;100.00
78990;BME280;68390;52.130;21.218;2023-09-18T01:39:40;100745.19;;;14.88;100.00
78990;BME280;68390;52.130;21.218;2023-09-18T01:42:07;100740.69;;;14.87;100.00
78990;BME280;68390;52.130;21.218;2023-09-18T01:44:35;100748.53;;;14.83;100.00
78990;BME280;68390;52.130;21.218;2023-09-18T01:47:03;100749.09;;;14.79;100.00
78990;BME280;68390;52.130;21.218;2023-09-18T01:49:32;100739.94;;;14.78;100.00
78990;BME280;68390;52.130;21.218;2023-09-18T01:51:57;100739.44;;;14.75;100.00
78990;BME280;68390;52.130;21.218;2023-09-18T01:54:23;100739.84;;;14.72;100.00
78990;BME280;68390;52.130;21.218;2023-09-18T01:56:49;100732.97;;;14.67;100.00
78990;BME280;68390;52.130;21.218;2023-09-18T01:59:15;100740.59;;;14.65;100.00
78990;BME280;68390;52.130;21.218;2023-09-18T02:01:41;100745.94;;;14.67;100.00
78990;BME280;68390;52.130;21.218;2023-09-18T02:04:06;100739.53;;;14.66;100.00
78990;BME280;68390;52.130;21.218;2023-09-18T02:06:31;100730.19;;;14.67;100.00
78990;BME280;68390;52.130;21.218;2023-09-18T02:08:57;100733.81;;;14.68;100.00
78990;BME280;68390;52.130;21.218;2023-09-18T02:11:22;100732.59;;;14.71;100.00
78990;BME280;68390;52.130;21.218;2023-09-18T02:13:47;100724.69;;;14.67;100.00
78990;BME280;68390;52.130;21.218;2023-09-18T02:16:13;100729.16;;;14.68;100.00
78990;BME280;68390;52.130;21.218;2023-09-18T02:18:38;100725.34;;;14.69;100.00
78990;BME280;68390;52.130;21.218;2023-09-18T02:21:03;100725.34;;;14.69;100.00
78990;BME280;68390;52.130;21.218;2023-09-18T02:23:29;100730.88;;;14.69;100.00
78990;BME280;68390;52.130;21.218;2023-09-18T02:25:58;100728.13;;;14.69;100.00
78990;BME280;68390;52.130;21.218;2023-09-18T02:28:24;100727.94;;;14.71;100.00
78990;BME280;68390;52.130;21.218;2023-09-18T02:30:49;100727.94;;;14.71;100.00
78990;BME280;68390;52.130;21.218;2023-09-18T02:33:15;100730.09;;;14.76;100.00
78990;BME280;68390;52.130;21.218;2023-09-18T02:35:41;100731.66;;;14.78;100.00
78990;BME280;68390;52.130;21.218;2023-09-18T02:38:08;100729.38;;;14.82;100.00
78990;BME280;68390;52.130;21.218;2023-09-18T02:40:33;100723.44;;;14.85;100.00
78990;BME280;68390;52.130;21.218;2023-09-18T02:43:00;100728.59;;;14.88;100.00
78990;BME280;68390;52.130;21.218;2023-09-18T02:45:27;100722.69;;;14.91;100.00
78990;BME280;68390;52.130;21.218;2023-09-18T02:47:52;100725.72;;;14.96;100.00
78990;BME280;68390;52.130;21.218;2023-09-18T02:50:18;100724.50;;;14.98;100.00
78990;BME280;68390;52.130;21.218;2023-09-18T02:52:43;100714.78;;;15.02;100.00
78990;BME280;68390;52.130;21.218;2023-09-18T02:55:08;100712.69;;;15.04;100.00
78990;BME280;68390;52.130;21.218;2023-09-18T02:57:35;100714.84;;;15.09;100.00
78990;BME280;68390;52.130;21.218;2023-09-18T03:00:00;100715.16;;;15.14;100.00
78990;BME280;68390;52.130;21.218;2023-09-18T03:02:26;100720.94;;;15.19;100.00
78990;BME280;68390;52.130;21.218;2023-09-18T03:04:51;100711.41;;;15.22;100.00
78990;BME280;68390;52.130;21.218;2023-09-18T03:07:16;100715.53;;;15.26;100.00
78990;BME280;68390;52.130;21.218;2023-09-18T03:09:42;100713.88;;;15.31;100.00
78990;BME280;68390;52.130;21.218;2023-09-18T03:12:08;100707.97;;;15.34;100.00
78990;BME280;68390;52.130;21.218;2023-09-18T03:14:34;100709.28;;;15.38;100.00
78990;BME280;68390;52.130;21.218;2023-09-18T03:16:59;100701.66;;;15.40;100.00
78990;BME280;68390;52.130;21.218;2023-09-18T03:19:25;100714.91;;;15.45;100.00
78990;BME280;68390;52.130;21.218;2023-09-18T03:21:52;100718.78;;;15.51;100.00
78990;BME280;68390;52.130;21.218;2023-09-18T03:24:17;100714.63;;;15.55;100.00
78990;BME280;68390;52.130;21.218;2023-09-18T03:26:43;100710.81;;;15.56;100.00
78990;BME280;68390;52.130;21.218;2023-09-18T03:29:08;100712.13;;;15.60;100.00
78990;BME280;68390;52.130;21.218;2023-09-18T03:31:33;100721.09;;;15.62;100.00
78990;BME280;68390;52.130;21.218;2023-09-18T03:33:58;100700.66;;;15.63;100.00
78990;BME280;68390;52.130;21.218;2023-09-18T03:36:24;100710.50;;;15.65;100.00
78990;BME280;68390;52.130;21.218;2023-09-18T03:38:49;100713.94;;;15.67;100.00
78990;BME280;68390;52.130;21.218;2023-09-18T03:41:15;100706.25;;;15.69;100.00
78990;BME280;68390;52.130;21.218;2023-09-18T03:43:40;100710.56;;;15.72;100.00
78990;BME280;68390;52.130;21.218;2023-09-18T03:46:06;100705.88;;;15.72;100.00
78990;BME280;68390;52.130;21.218;2023-09-18T03:48:32;100719.34;;;15.75;100.00
78990;BME280;68390;52.130;21.218;2023-09-18T03:51:06;100719.16;;;15.77;100.00
78990;BME280;68390;52.130;21.218;2023-09-18T03:53:35;100713.19;;;15.80;100.00
78990;BME280;68390;52.130;21.218;2023-09-18T03:56:01;100710.44;;;15.80;100.00
78990;BME280;68390;52.130;21.218;2023-09-18T03:58:26;100710.63;;;15.78;100.00
78990;BME280;68390;52.130;21.218;2023-09-18T04:00:52;100700.81;;;15.76;100.00
78990;BME280;68390;52.130;21.218;2023-09-18T04:03:17;100718.28;;;15.76;100.00
78990;BME280;68390;52.130;21.218;2023-09-18T04:05:44;100718.28;;;15.76;100.00
78990;BME280;68390;52.130;21.218;2023-09-18T04:08:10;100711.03;;;15.75;100.00
78990;BME280;68390;52.130;21.218;2023-09-18T04:10:36;100705.88;;;15.72;100.00
78990;BME280;68390;52.130;21.218;2023-09-18T04:13:02;100710.84;;;15.77;100.00
78990;BME280;68390;52.130;21.218;2023-09-18T04:15:27;100708.06;;;15.77;100.00
78990;BME280;68390;52.130;21.218;2023-09-18T04:17:55;100705.06;;;15.78;100.00
78990;BME280;68390;52.130;21.218;2023-09-18T04:20:20;100703.84;;;15.81;100.00
78990;BME280;68390;52.130;21.218;2023-09-18T04:22:47;100702.78;;;15.82;100.00
78990;BME280;68390;52.130;21.218;2023-09-18T04:25:16;100706.88;;;15.86;100.00
78990;BME280;68390;52.130;21.218;2023-09-18T04:27:42;100700.69;;;15.84;100.00
78990;BME280;68390;52.130;21.218;2023-09-18T04:30:08;100692.84;;;15.88;100.00
78990;BME280;68390;52.130;21.218;2023-09-18T04:32:37;100699.03;;;15.90;100.00
78990;BME280;68390;52.130;21.218;2023-09-18T04:35:03;100687.94;;;15.90;100.00
78990;BME280;68390;52.130;21.218;2023-09-18T04:37:30;100687.56;;;15.93;100.00
78990;BME280;68390;52.130;21.218;2023-09-18T04:39:57;100685.66;;;15.93;100.00
78990;BME280;68390;52.130;21.218;2023-09-18T04:42:22;100693.09;;;15.93;100.00
78990;BME280;68390;52.130;21.218;2023-09-18T04:44:48;100689.94;;;15.96;100.00
78990;BME280;68390;52.130;21.218;2023-09-18T04:47:13;100693.38;;;15.98;100.00
78990;BME280;68390;52.130;21.218;2023-09-18T04:49:38;100688.69;;;15.98;100.00
78990;BME280;68390;52.130;21.218;2023-09-18T04:52:04;100688.69;;;15.98;100.00
78990;BME280;68390;52.130;21.218;2023-09-18T04:54:30;100682.72;;;16.01;100.00
78990;BME280;68390;52.130;21.218;2023-09-18T04:56:56;100687.22;;;16.02;100.00
78990;BME280;68390;52.130;21.218;2023-09-18T04:59:21;100680.63;;;16.03;100.00
78990;BME280;68390;52.130;21.218;2023-09-18T05:01:46;100682.38;;;16.11;100.00
78990;BME280;68390;52.130;21.218;2023-09-18T05:04:12;100680.09;;;16.14;100.00
78990;BME280;68390;52.130;21.218;2023-09-18T05:06:38;100680.56;;;16.18;100.00
78990;BME280;68390;52.130;21.218;2023-09-18T05:09:04;100662.59;;;16.14;100.00
78990;BME280;68390;52.130;21.218;2023-09-18T05:11:30;100668.00;;;16.22;100.00
78990;BME280;68390;52.130;21.218;2023-09-18T05:13:56;100670.19;;;16.27;100.00
78990;BME280;68390;52.130;21.218;2023-09-18T05:16:21;100665.28;;;16.29;100.00
78990;BME280;68390;52.130;21.218;2023-09-18T05:18:47;100662.09;;;16.32;100.00
78990;BME280;68390;52.130;21.218;2023-09-18T05:21:12;100661.72;;;16.35;100.00
78990;BME280;68390;52.130;21.218;2023-09-18T05:23:38;100657.88;;;16.36;100.00
78990;BME280;68390;52.130;21.218;2023-09-18T05:26:03;100653.66;;;16.40;100.00
78990;BME280;68390;52.130;21.218;2023-09-18T05:28:29;100657.53;;;16.45;100.00
78990;BME280;68390;52.130;21.218;2023-09-18T05:30:55;100662.03;;;16.53;100.00
78990;BME280;68390;52.130;21.218;2023-09-18T05:33:20;100652.69;;;16.54;100.00
78990;BME280;68390;52.130;21.218;2023-09-18T05:35:46;100651.88;;;16.60;100.00
78990;BME280;68390;52.130;21.218;2023-09-18T05:38:12;100648.31;;;16.66;100.00
78990;BME280;68390;52.130;21.218;2023-09-18T05:40:39;100645.13;;;16.69;100.00
78990;BME280;68390;52.130;21.218;2023-09-18T05:43:04;100639.16;;;16.72;100.00
78990;BME280;68390;52.130;21.218;2023-09-18T05:45:30;100645.81;;;16.78;100.00
78990;BME280;68390;52.130;21.218;2023-09-18T05:47:57;100635.19;;;16.81;100.00
78990;BME280;68390;52.130;21.218;2023-09-18T05:50:32;100639.91;;;16.87;100.00
78990;BME280;68390;52.130;21.218;2023-09-18T05:52:58;100632.22;;;16.90;100.00
78990;BME280;68390;52.130;21.218;2023-09-18T05:55:25;100649.75;;;16.97;100.00
78990;BME280;68390;52.130;21.218;2023-09-18T05:57:51;100639.97;;;17.01;100.00
78990;BME280;68390;52.130;21.218;2023-09-18T06:00:16;100643.63;;;17.08;100.00
78990;BME280;68390;52.130;21.218;2023-09-18T06:02:43;100641.91;;;17.13;100.00
78990;BME280;68390;52.130;21.218;2023-09-18T06:05:10;100642.16;;;17.18;100.00
78990;BME280;68390;52.130;21.218;2023-09-18T06:07:36;100641.97;;;17.27;100.00
78990;BME280;68390;52.130;21.218;2023-09-18T06:10:02;100634.97;;;17.31;99.78
78990;BME280;68390;52.130;21.218;2023-09-18T06:12:29;100634.97;;;17.37;100.00
78990;BME280;68390;52.130;21.218;2023-09-18T06:14:55;100629.22;;;17.39;99.94
78990;BME280;68390;52.130;21.218;2023-09-18T06:17:20;100641.81;;;17.41;99.23
78990;BME280;68390;52.130;21.218;2023-09-18T06:19:46;100640.31;;;17.45;99.46
78990;BME280;68390;52.130;21.218;2023-09-18T06:22:12;100642.69;;;17.48;98.60
78990;BME280;68390;52.130;21.218;2023-09-18T06:24:38;100636.09;;;17.49;99.38
78990;BME280;68390;52.130;21.218;2023-09-18T06:27:03;100641.22;;;17.52;98.95
78990;BME280;68390;52.130;21.218;2023-09-18T06:29:30;100635.66;;;17.52;98.59
78990;BME280;68390;52.130;21.218;2023-09-18T06:31:56;100632.91;;;17.59;98.51
78990;BME280;68390;52.130;21.218;2023-09-18T06:34:21;100632.31;;;17.64;99.41
78990;BME280;68390;52.130;21.218;2023-09-18T06:36:46;100627.81;;;17.63;97.96
78990;BME280;68390;52.130;21.218;2023-09-18T06:39:12;100629.53;;;17.64;97.84
78990;BME280;68390;52.130;21.218;2023-09-18T06:41:37;100626.50;;;17.65;98.12
78990;BME280;68390;52.130;21.218;2023-09-18T06:44:02;100631.25;;;17.71;97.89
78990;BME280;68390;52.130;21.218;2023-09-18T06:46:31;100622.25;;;17.76;98.11
78990;BME280;68390;52.130;21.218;2023-09-18T06:48:57;100620.78;;;17.86;97.98
78990;BME280;68390;52.130;21.218;2023-09-18T06:51:26;100623.16;;;17.96;97.63
78990;BME280;68390;52.130;21.218;2023-09-18T06:53:52;100621.44;;;18.08;96.75
78990;BME280;68390;52.130;21.218;2023-09-18T06:56:18;100624.03;;;18.16;96.07
78990;BME280;68390;52.130;21.218;2023-09-18T06:58:44;100626.13;;;18.27;95.81
78990;BME280;68390;52.130;21.218;2023-09-18T07:01:09;100623.75;;;18.38;95.26
78990;BME280;68390;52.130;21.218;2023-09-18T07:03:35;100629.75;;;18.41;95.40
78990;BME280;68390;52.130;21.218;2023-09-18T07:06:02;100628.91;;;18.47;97.48
78990;BME280;68390;52.130;21.218;2023-09-18T07:08:27;100640.22;;;18.59;95.53
78990;BME280;68390;52.130;21.218;2023-09-18T07:10:53;100623.53;;;18.65;94.73
78990;BME280;68390;52.130;21.218;2023-09-18T07:13:18;100629.06;;;18.72;94.42
78990;BME280;68390;52.130;21.218;2023-09-18T07:15:44;100633.34;;;18.81;94.25
78990;BME280;68390;52.130;21.218;2023-09-18T07:18:10;100629.69;;;18.87;94.04
78990;BME280;68390;52.130;21.218;2023-09-18T07:20:45;100631.59;;;18.93;93.20
78990;BME280;68390;52.130;21.218;2023-09-18T07:23:11;100626.63;;;19.02;93.39
78990;BME280;68390;52.130;21.218;2023-09-18T07:25:36;100629.78;;;19.12;92.16
78990;BME280;68390;52.130;21.218;2023-09-18T07:28:06;100627.59;;;19.21;92.41
78990;BME280;68390;52.130;21.218;2023-09-18T07:30:31;100622.25;;;19.26;91.07
78990;BME280;68390;52.130;21.218;2023-09-18T07:32:56;100635.03;;;19.40;91.49
78990;BME280;68390;52.130;21.218;2023-09-18T07:35:23;100635.22;;;19.52;89.97
78990;BME280;68390;52.130;21.218;2023-09-18T07:37:48;100629.59;;;19.58;90.38
78990;BME280;68390;52.130;21.218;2023-09-18T07:40:14;100620.03;;;19.79;89.60
78990;BME280;68390;52.130;21.218;2023-09-18T07:42:41;100629.38;;;19.91;90.10
78990;BME280;68390;52.130;21.218;2023-09-18T07:45:06;100622.00;;;20.03;88.43
78990;BME280;68390;52.130;21.218;2023-09-18T07:47:32;100618.69;;;20.13;89.38
78990;BME280;68390;52.130;21.218;2023-09-18T07:49:57;100619.75;;;20.43;89.44
78990;BME280;68390;52.130;21.218;2023-09-18T07:52:22;100617.75;;;20.69;87.51
78990;BME280;68390;52.130;21.218;2023-09-18T07:54:48;100622.97;;;20.83;86.29
78990;BME280;68390;52.130;21.218;2023-09-18T07:57:13;100623.91;;;20.96;84.95
78990;BME280;68390;52.130;21.218;2023-09-18T07:59:39;100620.06;;;21.08;84.50
78990;BME280;68390;52.130;21.218;2023-09-18T08:02:06;100619.94;;;21.21;84.41
78990;BME280;68390;52.130;21.218;2023-09-18T08:04:32;100621.72;;;21.34;84.58
78990;BME280;68390;52.130;21.218;2023-09-18T08:06:57;100619.91;;;21.40;82.07
78990;BME280;68390;52.130;21.218;2023-09-18T08:09:22;100613.16;;;21.47;83.36
78990;BME280;68390;52.130;21.218;2023-09-18T08:11:48;100612.59;;;21.57;81.89
78990;BME280;68390;52.130;21.218;2023-09-18T08:14:15;100623.88;;;21.62;81.96
78990;BME280;68390;52.130;21.218;2023-09-18T08:16:41;100608.13;;;21.68;79.84
78990;BME280;68390;52.130;21.218;2023-09-18T08:19:06;100607.53;;;21.77;81.37
78990;BME280;68390;52.130;21.218;2023-09-18T08:21:32;100593.22;;;21.85;79.75
78990;BME280;68390;52.130;21.218;2023-09-18T08:23:58;100592.19;;;21.98;79.61
78990;BME280;68390;52.130;21.218;2023-09-18T08:26:23;100587.09;;;22.07;76.94
78990;BME280;68390;52.130;21.218;2023-09-18T08:28:48;100596.19;;;22.14;76.73
78990;BME280;68390;52.130;21.218;2023-09-18T08:31:14;100590.84;;;22.24;78.37
78990;BME280;68390;52.130;21.218;2023-09-18T08:33:42;100597.78;;;22.33;76.77
78990;BME280;68390;52.130;21.218;2023-09-18T08:36:07;100590.16;;;22.40;76.03
78990;BME280;68390;52.130;21.218;2023-09-18T08:38:32;100588.56;;;22.44;76.54
78990;BME280;68390;52.130;21.218;2023-09-18T08:40:58;100586.00;;;22.54;76.45
78990;BME280;68390;52.130;21.218;2023-09-18T08:43:24;100583.69;;;22.63;76.75
78990;BME280;68390;52.130;21.218;2023-09-18T08:45:52;100580.41;;;22.78;75.72
78990;BME280;68390;52.130;21.218;2023-09-18T08:48:19;100585.84;;;22.84;75.44
78990;BME280;68390;52.130;21.218;2023-09-18T08:50:45;100587.44;;;22.92;74.12
78990;BME280;68390;52.130;21.218;2023-09-18T08:53:12;100578.03;;;22.98;73.47
78990;BME280;68390;52.130;21.218;2023-09-18T08:55:37;100577.06;;;23.04;72.88
78990;BME280;68390;52.130;21.218;2023-09-18T08:58:03;100582.03;;;23.14;73.01
78990;BME280;68390;52.130;21.218;2023-09-18T09:00:29;100573.22;;;23.22;72.52
78990;BME280;68390;52.130;21.218;2023-09-18T09:02:54;100571.13;;;23.29;72.99
78990;BME280;68390;52.130;21.218;2023-09-18T09:05:23;100568.19;;;23.35;72.75
78990;BME280;68390;52.130;21.218;2023-09-18T09:07:49;100566.69;;;23.45;70.55
78990;BME280;68390;52.130;21.218;2023-09-18T09:10:16;100572.41;;;23.50;68.40
78990;BME280;68390;52.130;21.218;2023-09-18T09:15:23;100563.09;;;23.61;70.03
78990;BME280;68390;52.130;21.218;2023-09-18T09:17:50;100566.56;;;23.68;69.33
78990;BME280;68390;52.130;21.218;2023-09-18T09:20:16;100562.78;;;23.74;67.38
78990;BME280;68390;52.130;21.218;2023-09-18T09:22:44;100563.09;;;23.77;66.21
78990;BME280;68390;52.130;21.218;2023-09-18T09:25:27;100561.25;;;23.83;66.85
78990;BME280;68390;52.130;21.218;2023-09-18T09:27:54;100563.31;;;23.88;65.76
78990;BME280;68390;52.130;21.218;2023-09-18T09:30:21;100559.47;;;23.94;65.20
78990;BME280;68390;52.130;21.218;2023-09-18T09:32:48;100564.31;;;23.98;66.20
78990;BME280;68390;52.130;21.218;2023-09-18T09:35:23;100549.28;;;24.04;65.53
78990;BME280;68390;52.130;21.218;2023-09-18T09:37:50;100552.16;;;24.09;63.44
78990;BME280;68390;52.130;21.218;2023-09-18T09:40:19;100553.59;;;24.12;61.94
78990;BME280;68390;52.130;21.218;2023-09-18T09:42:45;100543.03;;;24.19;62.41
78990;BME280;68390;52.130;21.218;2023-09-18T09:45:12;100548.59;;;24.31;61.51
78990;BME280;68390;52.130;21.218;2023-09-18T09:47:38;100546.47;;;24.38;61.75
78990;BME280;68390;52.130;21.218;2023-09-18T09:50:11;100541.00;;;24.48;60.99
78990;BME280;68390;52.130;21.218;2023-09-18T09:52:44;100538.09;;;24.60;60.39
78990;BME280;68390;52.130;21.218;2023-09-18T09:55:32;100536.53;;;24.69;59.17
78990;BME280;68390;52.130;21.218;2023-09-18T09:58:04;100532.41;;;24.76;59.34
78990;BME280;68390;52.130;21.218;2023-09-18T10:03:06;100531.84;;;24.96;56.39
78990;BME280;68390;52.130;21.218;2023-09-18T10:05:38;100526.63;;;25.05;56.33
78990;BME280;68390;52.130;21.218;2023-09-18T10:08:10;100526.69;;;25.10;55.32
78990;BME280;68390;52.130;21.218;2023-09-18T10:10:39;100518.00;;;25.11;53.46
78990;BME280;68390;52.130;21.218;2023-09-18T10:13:10;100524.03;;;25.25;53.43
78990;BME280;68390;52.130;21.218;2023-09-18T10:15:38;100522.66;;;25.28;53.17
78990;BME280;68390;52.130;21.218;2023-09-18T10:18:16;100507.28;;;25.35;55.06
78990;BME280;68390;52.130;21.218;2023-09-18T10:20:43;100497.00;;;25.46;54.12
78990;BME280;68390;52.130;21.218;2023-09-18T10:23:20;100499.16;;;25.61;53.21
78990;BME280;68390;52.130;21.218;2023-09-18T10:25:53;100496.44;;;25.71;52.50
78990;BME280;68390;52.130;21.218;2023-09-18T10:28:23;100492.00;;;25.80;53.67
78990;BME280;68390;52.130;21.218;2023-09-18T10:30:49;100488.41;;;25.84;52.25
78990;BME280;68390;52.130;21.218;2023-09-18T10:33:16;100481.91;;;25.84;50.37
78990;BME280;68390;52.130;21.218;2023-09-18T10:35:42;100498.03;;;25.93;49.67
78990;BME280;68390;52.130;21.218;2023-09-18T10:38:09;100487.34;;;25.95;51.24
78990;BME280;68390;52.130;21.218;2023-09-18T10:40:36;100484.53;;;25.95;50.04
78990;BME280;68390;52.130;21.218;2023-09-18T10:43:03;100495.03;;;26.05;51.66
78990;BME280;68390;52.130;21.218;2023-09-18T10:45:30;100494.50;;;26.13;49.40
78990;BME280;68390;52.130;21.218;2023-09-18T10:47:56;100496.25;;;26.19;49.38
78990;BME280;68390;52.130;21.218;2023-09-18T10:50:26;100488.38;;;26.21;48.94
78990;BME280;68390;52.130;21.218;2023-09-18T10:52:52;100486.72;;;26.25;50.27
78990;BME280;68390;52.130;21.218;2023-09-18T10:55:18;100484.44;;;26.22;50.40
78990;BME280;68390;52.130;21.218;2023-09-18T10:57:57;100474.34;;;26.26;48.99
78990;BME280;68390;52.130;21.218;2023-09-18T11:00:28;100473.84;;;26.35;51.30
78990;BME280;68390;52.130;21.218;2023-09-18T11:03:10;100469.41;;;26.44;51.05
78990;BME280;68390;52.130;21.218;2023-09-18T11:05:36;100465.19;;;26.51;49.84
78990;BME280;68390;52.130;21.218;2023-09-18T11:08:24;100466.91;;;26.52;48.39
78990;BME280;68390;52.130;21.218;2023-09-18T11:11:09;100462.69;;;26.55;49.85
78990;BME280;68390;52.130;21.218;2023-09-18T11:13:42;100457.66;;;26.57;50.23
78990;BME280;68390;52.130;21.218;2023-09-18T11:18:39;100467.25;;;26.66;49.39
78990;BME280;68390;52.130;21.218;2023-09-18T11:21:11;100463.31;;;26.67;51.04
78990;BME280;68390;52.130;21.218;2023-09-18T11:23:38;100457.66;;;26.62;48.66
78990;BME280;68390;52.130;21.218;2023-09-18T11:26:11;100452.31;;;26.65;49.38
78990;BME280;68390;52.130;21.218;2023-09-18T11:28:37;100448.66;;;26.65;51.17
78990;BME280;68390;52.130;21.218;2023-09-18T11:31:04;100449.78;;;26.69;49.93
78990;BME280;68390;52.130;21.218;2023-09-18T11:38:54;100447.84;;;26.80;49.95
78990;BME280;68390;52.130;21.218;2023-09-18T11:41:23;100440.25;;;26.80;50.68
78990;BME280;68390;52.130;21.218;2023-09-18T11:43:54;100443.66;;;26.77;49.26
78990;BME280;68390;52.130;21.218;2023-09-18T11:46:49;100441.94;;;26.76;49.67
78990;BME280;68390;52.130;21.218;2023-09-18T11:49:22;100430.94;;;26.75;50.36
78990;BME280;68390;52.130;21.218;2023-09-18T11:51:49;100439.13;;;26.76;50.86
78990;BME280;68390;52.130;21.218;2023-09-18T11:54:16;100434.91;;;26.84;51.16
78990;BME280;68390;52.130;21.218;2023-09-18T11:56:42;100447.03;;;26.89;48.63
78990;BME280;68390;52.130;21.218;2023-09-18T11:59:08;100436.63;;;26.90;49.61
78990;BME280;68390;52.130;21.218;2023-09-18T12:01:35;100431.81;;;26.90;50.59
78990;BME280;68390;52.130;21.218;2023-09-18T12:04:02;100417.78;;;26.95;49.21
78990;BME280;68390;52.130;21.218;2023-09-18T12:06:33;100425.44;;;27.05;48.48
78990;BME280;68390;52.130;21.218;2023-09-18T12:08:58;100420.91;;;26.99;48.88
78990;BME280;68390;52.130;21.218;2023-09-18T12:11:25;100414.91;;;26.85;48.22
78990;BME280;68390;52.130;21.218;2023-09-18T12:13:51;100424.75;;;26.83;48.43
78990;BME280;68390;52.130;21.218;2023-09-18T12:16:16;100405.31;;;26.81;48.44
78990;BME280;68390;52.130;21.218;2023-09-18T12:18:46;100412.69;;;26.87;48.36
78990;BME280;68390;52.130;21.218;2023-09-18T12:21:14;100401.94;;;26.84;48.03
78990;BME280;68390;52.130;21.218;2023-09-18T12:23:41;100408.13;;;26.81;47.07
78990;BME280;68390;52.130;21.218;2023-09-18T12:26:11;100403.34;;;26.82;46.65
78990;BME280;68390;52.130;21.218;2023-09-18T12:28:41;100404.75;;;26.84;47.56
78990;BME280;68390;52.130;21.218;2023-09-18T12:31:14;100398.56;;;26.82;47.00
78990;BME280;68390;52.130;21.218;2023-09-18T12:33:41;100399.13;;;26.84;48.59
78990;BME280;68390;52.130;21.218;2023-09-18T12:36:09;100390.41;;;26.86;47.07
78990;BME280;68390;52.130;21.218;2023-09-18T12:38:35;100385.34;;;26.88;46.84
78990;BME280;68390;52.130;21.218;2023-09-18T12:41:02;100381.41;;;26.89;46.66
78990;BME280;68390;52.130;21.218;2023-09-18T12:43:40;100381.09;;;26.85;47.08
78990;BME280;68390;52.130;21.218;2023-09-18T12:46:09;100370.94;;;26.89;45.28
78990;BME280;68390;52.130;21.218;2023-09-18T12:48:39;100380.84;;;26.92;45.20